Terminal Aerodrome Forecast
Issued by NWS

Home | Current Version | Previous Version | Text Only | Print | Product List | Glossary On
Versions: 1 2 3 4 5 6 7 8 9 10 11 12 13 14 15 16 17 18 19 20 21 22 23 24 25 26 27 28 29 30 31 32 33 34 35 36 37 38 39 40 41 42 43
000
FTUS45 KBOU 241809 AAA
TAFBJC
TAF AMD
KBJC 241809Z 2418/2518 28012G25KT P6SM FEW080 SCT220
     FM242000 VRB06KT P6SM VCSH SCT090 BKN120
      TEMPO 2420/2424 VRB25G40KT -TSRA BKN080CB
     FM250300 24007KT P6SM SCT090 BKN140 BKN220
     FM250500 30007KT P6SM FEW120 BKN220
     FM251600 06008KT P6SM FEW100 SCT220=

USA.gov is the U.S. government's official web portal to all federal, state and local government web resources and services.